Time;durP1;ratioP1;P1;durP2;ratioP2;P2;SDS_P1;SDS_P2;PMS_P1;PMS_P2;Temp;Humidity;BMP_temperature;BMP_pressure;BME280_temperature;BME280_humidity;BME280_pressure;Samples;Min_cycle;Max_cycle;Signal;HPM_P1;HPM_P2
2022/01/27 00:02:56;;;;;;;50.63;25.30;;;3.60;99.90;;;;;;4986033;28;20211;-76
2022/01/27 00:05:26;;;;;;;53.37;27.27;;;3.50;99.90;;;;;;4985686;28;20698;-75
2022/01/27 00:08:09;;;;;;;46.63;23.73;;;3.60;99.90;;;;;;4990782;28;20241;-76
2022/01/27 00:10:54;;;;;;;57.50;27.27;;;3.60;99.90;;;;;;5005662;28;20211;-75
2022/01/27 00:13:28;;;;;;;42.20;22.43;;;3.60;99.90;;;;;;5000717;28;20559;-75
2022/01/27 00:16:13;;;;;;;50.77;25.97;;;3.60;99.90;;;;;;4981977;28;20202;-75
2022/01/27 00:18:42;;;;;;;54.67;27.03;;;3.60;99.90;;;;;;4990467;28;20222;-75
2022/01/27 00:21:09;;;;;;;52.53;27.80;;;3.60;99.90;;;;;;4990656;28;20213;-75
2022/01/27 00:23:37;;;;;;;48.93;25.83;;;3.50;99.90;;;;;;4987028;28;20207;-75
2022/01/27 00:26:05;;;;;;;48.27;25.57;;;3.60;99.90;;;;;;4990061;28;20210;-76
2022/01/27 00:28:32;;;;;;;51.73;26.27;;;3.60;99.90;;;;;;4990381;28;20216;-76
2022/01/27 00:31:01;;;;;;;48.97;27.80;;;3.60;99.90;;;;;;4989335;28;20711;-75
2022/01/27 00:33:28;;;;;;;45.80;25.67;;;3.60;99.90;;;;;;4992577;28;20217;-76
2022/01/27 00:35:56;;;;;;;44.13;25.50;;;3.60;99.90;;;;;;4993265;28;20619;-76
2022/01/27 00:38:42;;;;;;;47.40;25.87;;;3.50;99.90;;;;;;4989785;28;20224;-76
2022/01/27 00:41:10;;;;;;;48.40;28.70;;;3.50;99.90;;;;;;4988772;28;20216;-76
2022/01/27 00:43:38;;;;;;;42.83;27.23;;;3.50;99.90;;;;;;4996323;28;20212;-75
2022/01/27 00:46:12;;;;;;;42.90;24.70;;;3.50;99.90;;;;;;4998723;28;20206;-75
2022/01/27 00:48:40;;;;;;;43.77;24.97;;;3.50;99.90;;;;;;4981484;28;20226;-75
2022/01/27 00:51:09;;;;;;;44.00;24.30;;;3.50;99.90;;;;;;4989620;28;20200;-75
2022/01/27 00:53:44;;;;;;;41.43;22.57;;;3.50;99.90;;;;;;4980832;28;20212;-76
2022/01/27 00:56:19;;;;;;;53.60;28.70;;;3.50;99.90;;;;;;5000928;28;20219;-76
2022/01/27 00:58:54;;;;;;;45.73;26.83;;;3.50;99.90;;;;;;4985411;28;20229;-76
2022/01/27 01:01:29;;;;;;;44.03;24.43;;;3.40;99.90;;;;;;4981595;28;20584;-76
2022/01/27 01:04:03;;;;;;;48.17;26.17;;;3.40;99.90;;;;;;5001518;28;20218;-75
2022/01/27 01:06:39;;;;;;;44.27;24.60;;;3.40;99.90;;;;;;5001241;28;20211;-75
2022/01/27 01:12:40;;;;;;;38.40;20.70;;;3.40;99.90;;;;;;4986968;28;20204;-75
2022/01/27 01:15:04;;;;;;;43.27;23.37;;;3.40;99.90;;;;;;4991797;28;20680;-75
2022/01/27 01:17:58;;;;;;;39.60;21.97;;;3.40;99.90;;;;;;5004432;28;20197;-75
2022/01/27 01:20:45;;;;;;;47.33;23.87;;;3.40;99.90;;;;;;5007291;28;20208;-76
2022/01/27 01:31:45;;;;;;;38.10;23.30;;;3.40;99.90;;;;;;4989889;28;20221;-75
2022/01/27 01:34:18;;;;;;;38.93;22.87;;;3.40;99.90;;;;;;4993271;28;20178;-76
2022/01/27 01:36:56;;;;;;;42.40;22.83;;;3.40;99.90;;;;;;4986767;28;20204;-76
2022/01/27 01:39:24;;;;;;;42.83;23.37;;;3.40;99.90;;;;;;4988225;28;20712;-75
2022/01/27 01:41:52;;;;;;;34.63;19.67;;;3.40;99.90;;;;;;4982332;28;20216;-75
2022/01/27 01:44:21;;;;;;;39.53;22.93;;;3.40;99.90;;;;;;5007889;28;20207;-75
2022/01/27 01:46:48;;;;;;;36.47;22.90;;;3.40;99.90;;;;;;4991237;28;20548;-76
2022/01/27 01:49:17;;;;;;;39.27;22.63;;;3.40;99.90;;;;;;4988512;28;20222;-75
2022/01/27 01:51:45;;;;;;;41.33;22.20;;;3.50;99.90;;;;;;4999189;28;20202;-75
2022/01/27 01:54:13;;;;;;;41.53;22.63;;;3.50;99.90;;;;;;4987278;28;20553;-75
2022/01/27 01:56:42;;;;;;;36.77;20.70;;;3.50;99.90;;;;;;5001232;28;20213;-75
2022/01/27 01:59:10;;;;;;;36.90;21.87;;;3.50;99.90;;;;;;4982299;28;20225;-75
2022/01/27 02:01:59;;;;;;;42.33;24.47;;;3.50;99.90;;;;;;4987275;28;20694;-75
2022/01/27 02:04:28;;;;;;;35.00;21.20;;;3.50;99.90;;;;;;5006877;28;20561;-75
2022/01/27 02:06:58;;;;;;;45.70;23.07;;;3.50;99.90;;;;;;4988060;28;20200;-75
2022/01/27 02:09:35;;;;;;;44.07;24.60;;;3.50;99.90;;;;;;4990464;28;20234;-76
2022/01/27 02:20:19;;;;;;;41.90;21.83;;;3.40;99.90;;;;;;4986469;28;20204;-75
2022/01/27 02:22:46;;;;;;;44.33;25.13;;;3.40;99.90;;;;;;4990813;28;20205;-75
2022/01/27 02:25:14;;;;;;;48.43;25.40;;;3.40;99.90;;;;;;4989820;28;20579;-75
2022/01/27 02:27:41;;;;;;;41.20;22.80;;;3.40;99.90;;;;;;4990350;28;20211;-75
2022/01/27 02:30:16;;;;;;;42.67;21.57;;;3.30;99.90;;;;;;4990146;28;20209;-75
2022/01/27 02:32:44;;;;;;;41.63;21.57;;;3.30;99.90;;;;;;4978141;28;20205;-75
2022/01/27 02:35:11;;;;;;;43.40;23.17;;;3.30;99.90;;;;;;5009542;28;20566;-75
2022/01/27 02:37:40;;;;;;;45.57;22.87;;;3.30;99.90;;;;;;4989552;28;20670;-75
2022/01/27 02:40:08;;;;;;;42.63;22.07;;;3.30;99.90;;;;;;4989777;28;20198;-75
2022/01/27 02:42:37;;;;;;;45.03;22.40;;;3.30;99.90;;;;;;4974794;28;20225;-75
2022/01/27 02:45:09;;;;;;;41.67;21.57;;;3.30;99.90;;;;;;4990967;28;20201;-75
2022/01/27 02:47:39;;;;;;;42.43;23.10;;;3.40;99.90;;;;;;4995506;28;20195;-75
2022/01/27 02:50:07;;;;;;;41.47;24.77;;;3.40;99.90;;;;;;4993704;28;20196;-75
2022/01/27 02:52:35;;;;;;;42.77;21.73;;;3.30;99.90;;;;;;4988223;28;20189;-75
2022/01/27 02:55:04;;;;;;;35.93;19.47;;;3.30;99.90;;;;;;4990862;28;20204;-76
2022/01/27 02:57:31;;;;;;;42.30;21.37;;;3.40;99.90;;;;;;4998582;28;20208;-75
2022/01/27 02:59:59;;;;;;;39.93;21.17;;;3.40;99.90;;;;;;5005537;28;20229;-75
2022/01/27 03:02:26;;;;;;;44.23;22.70;;;3.40;99.90;;;;;;4988201;28;20209;-76
2022/01/27 03:04:53;;;;;;;41.27;23.60;;;3.40;99.90;;;;;;4991462;28;20202;-76
2022/01/27 03:07:21;;;;;;;41.53;21.83;;;3.40;99.90;;;;;;4992191;28;20208;-75
2022/01/27 03:09:48;;;;;;;40.77;23.50;;;3.40;99.90;;;;;;4993148;28;20220;-75
2022/01/27 03:12:20;;;;;;;39.37;22.10;;;3.40;99.90;;;;;;4996823;28;20196;-75
2022/01/27 03:14:47;;;;;;;37.23;20.47;;;3.40;99.90;;;;;;4991679;28;20201;-75
2022/01/27 03:17:14;;;;;;;41.97;21.80;;;3.40;99.90;;;;;;4990852;28;20570;-75
2022/01/27 03:19:42;;;;;;;40.77;20.77;;;3.40;99.90;;;;;;4991931;28;20224;-76
2022/01/27 03:22:10;;;;;;;37.77;19.87;;;3.50;99.90;;;;;;4987138;28;20213;-75
2022/01/27 03:24:38;;;;;;;36.97;20.60;;;3.50;99.90;;;;;;4982473;28;20209;-76
2022/01/27 03:27:13;;;;;;;37.13;21.93;;;3.50;99.90;;;;;;4997235;28;20726;-76
2022/01/27 03:29:42;;;;;;;32.13;17.10;;;3.50;99.90;;;;;;4983954;28;20226;-75
2022/01/27 03:32:09;;;;;;;39.53;20.37;;;3.40;99.90;;;;;;4989526;28;20196;-75
2022/01/27 03:34:48;;;;;;;44.33;23.43;;;3.50;99.90;;;;;;4994497;28;20188;-75
2022/01/27 03:37:15;;;;;;;40.47;21.93;;;3.50;99.90;;;;;;4990433;28;20209;-75
2022/01/27 03:39:43;;;;;;;39.10;22.57;;;3.50;99.90;;;;;;4997861;28;20235;-75
2022/01/27 03:42:10;;;;;;;37.93;20.63;;;3.50;99.90;;;;;;5000774;28;20224;-76
2022/01/27 03:44:38;;;;;;;39.40;21.43;;;3.50;99.90;;;;;;4982241;28;20559;-76
2022/01/27 03:47:07;;;;;;;40.03;20.90;;;3.50;99.90;;;;;;4999585;28;20223;-75
2022/01/27 03:50:01;;;;;;;34.40;19.90;;;3.50;99.90;;;;;;4993268;28;20230;-76
2022/01/27 03:52:28;;;;;;;39.27;22.70;;;3.60;99.90;;;;;;4996224;28;20256;-75
2022/01/27 03:54:56;;;;;;;39.93;21.70;;;3.60;99.90;;;;;;4990201;28;20209;-75
2022/01/27 03:57:23;;;;;;;36.20;20.40;;;3.60;99.90;;;;;;4980215;28;20204;-75
2022/01/27 03:59:50;;;;;;;36.17;21.23;;;3.60;99.90;;;;;;4984702;28;20229;-75
2022/01/27 04:02:19;;;;;;;40.00;21.80;;;3.60;99.90;;;;;;4984898;28;20247;-75
2022/01/27 04:04:47;;;;;;;32.83;20.40;;;3.60;99.90;;;;;;4995279;28;20221;-75
2022/01/27 04:07:14;;;;;;;41.73;23.00;;;3.60;99.90;;;;;;4990984;28;20552;-76
2022/01/27 04:09:41;;;;;;;38.50;21.53;;;3.60;99.90;;;;;;4990344;28;20225;-75
2022/01/27 04:12:10;;;;;;;41.90;22.63;;;3.70;99.90;;;;;;5003460;28;20205;-75
2022/01/27 04:14:37;;;;;;;40.83;22.00;;;3.60;99.90;;;;;;4991126;28;20196;-76
2022/01/27 04:17:05;;;;;;;36.60;21.20;;;3.60;99.90;;;;;;4991622;28;20196;-75
2022/01/27 04:19:34;;;;;;;39.77;23.00;;;3.70;99.90;;;;;;4993924;28;20214;-75
2022/01/27 04:22:02;;;;;;;43.73;23.13;;;3.70;99.90;;;;;;4989958;28;20584;-75
2022/01/27 04:24:30;;;;;;;39.57;21.63;;;3.70;99.90;;;;;;4989543;28;20563;-76
2022/01/27 04:27:03;;;;;;;42.97;22.17;;;3.70;99.90;;;;;;5000700;28;20204;-76
2022/01/27 04:29:35;;;;;;;38.27;21.30;;;3.70;99.90;;;;;;4988861;28;20223;-76
2022/01/27 04:32:07;;;;;;;43.33;22.80;;;3.70;99.90;;;;;;4989815;28;20664;-75
2022/01/27 04:34:39;;;;;;;39.13;21.63;;;3.70;99.90;;;;;;4997686;28;20205;-75
2022/01/27 04:37:08;;;;;;;39.10;20.87;;;3.70;99.90;;;;;;4989933;28;20212;-75
2022/01/27 04:39:41;;;;;;;37.57;20.43;;;3.70;99.90;;;;;;4997263;28;20600;-75
2022/01/27 04:42:14;;;;;;;38.53;20.87;;;3.70;99.90;;;;;;5004773;28;20219;-75
2022/01/27 04:44:49;;;;;;;39.30;22.03;;;3.70;99.90;;;;;;4988951;28;20199;-76
2022/01/27 04:47:23;;;;;;;41.93;22.33;;;3.80;99.90;;;;;;4991126;28;20203;-76
2022/01/27 04:49:51;;;;;;;35.23;19.97;;;3.80;99.90;;;;;;4982364;28;20243;-75
2022/01/27 04:52:19;;;;;;;38.77;20.57;;;3.80;99.90;;;;;;4989909;28;20200;-75
2022/01/27 04:54:56;;;;;;;35.10;20.80;;;3.80;99.90;;;;;;4988840;28;20290;-75
2022/01/27 04:57:25;;;;;;;41.17;21.53;;;3.90;99.90;;;;;;4987799;28;20286;-75
2022/01/27 04:59:53;;;;;;;34.97;19.70;;;3.90;99.90;;;;;;4986616;28;20226;-75
2022/01/27 05:02:29;;;;;;;36.67;20.30;;;3.90;99.90;;;;;;5001644;28;20227;-75
2022/01/27 05:04:58;;;;;;;34.07;20.07;;;4.00;99.90;;;;;;4992536;28;20207;-76
2022/01/27 05:07:25;;;;;;;34.73;19.90;;;4.00;99.90;;;;;;4987893;28;20197;-76
2022/01/27 05:09:57;;;;;;;35.83;20.37;;;4.00;99.90;;;;;;4986711;28;20241;-75
2022/01/27 05:12:33;;;;;;;37.43;20.47;;;4.00;99.90;;;;;;4998083;28;20195;-75
2022/01/27 05:15:00;;;;;;;36.33;21.03;;;4.00;99.90;;;;;;4986697;28;20609;-75
2022/01/27 05:17:27;;;;;;;29.97;18.70;;;4.10;99.90;;;;;;4985457;28;20206;-75
2022/01/27 05:19:55;;;;;;;36.10;17.90;;;4.10;99.90;;;;;;4995958;28;20229;-75
2022/01/27 05:22:23;;;;;;;34.57;20.43;;;4.20;99.90;;;;;;4992130;28;20216;-75
2022/01/27 05:24:51;;;;;;;33.03;19.77;;;4.20;99.90;;;;;;5000732;28;20211;-75
2022/01/27 05:27:18;;;;;;;30.13;19.27;;;4.20;99.90;;;;;;4990012;28;20218;-75
2022/01/27 05:29:46;;;;;;;33.30;19.33;;;4.30;99.90;;;;;;5007921;28;20222;-75
2022/01/27 05:32:13;;;;;;;33.07;18.23;;;4.30;99.90;;;;;;4986796;28;20200;-75
2022/01/27 05:34:41;;;;;;;35.07;19.90;;;4.30;99.90;;;;;;4992928;28;20188;-75
2022/01/27 05:37:08;;;;;;;32.13;18.70;;;4.30;99.90;;;;;;4991809;28;20205;-75
2022/01/27 05:39:37;;;;;;;29.70;17.97;;;4.30;99.90;;;;;;4993237;28;20216;-75
2022/01/27 05:42:05;;;;;;;37.23;20.13;;;4.30;99.90;;;;;;4988697;28;20215;-75
2022/01/27 05:44:32;;;;;;;36.40;20.63;;;4.20;99.90;;;;;;4991918;28;20193;-75
2022/01/27 05:46:59;;;;;;;34.20;18.83;;;4.20;99.90;;;;;;4988505;28;20228;-75
2022/01/27 05:49:27;;;;;;;33.33;20.23;;;4.20;99.90;;;;;;4982838;28;20220;-75
2022/01/27 05:51:55;;;;;;;34.67;18.90;;;4.30;99.90;;;;;;5003736;28;20266;-75
2022/01/27 05:54:34;;;;;;;37.20;19.43;;;4.20;99.90;;;;;;4982787;28;20676;-75
2022/01/27 05:57:03;;;;;;;35.63;18.60;;;4.30;99.90;;;;;;4988265;28;20218;-75
2022/01/27 05:59:30;;;;;;;36.30;18.73;;;4.30;99.90;;;;;;4985421;28;20693;-75
2022/01/27 06:01:58;;;;;;;34.50;17.97;;;4.30;99.90;;;;;;4983786;28;20659;-76
2022/01/27 06:04:25;;;;;;;32.77;18.40;;;4.30;99.90;;;;;;5006020;28;20217;-76
2022/01/27 06:06:53;;;;;;;32.70;20.87;;;4.30;99.90;;;;;;4989344;28;20551;-76
2022/01/27 06:09:32;;;;;;;31.10;17.00;;;4.40;99.90;;;;;;4988141;28;20595;-75
2022/01/27 06:11:59;;;;;;;31.97;19.00;;;4.40;99.90;;;;;;4984367;28;20547;-75
2022/01/27 06:14:28;;;;;;;31.33;17.90;;;4.50;99.90;;;;;;4990721;28;20267;-75
2022/01/27 06:16:55;;;;;;;32.60;18.53;;;4.50;99.90;;;;;;4988418;28;20199;-75
2022/01/27 06:19:26;;;;;;;31.73;18.23;;;4.50;99.90;;;;;;4989397;28;20255;-75
2022/01/27 06:21:53;;;;;;;33.20;18.83;;;4.50;99.90;;;;;;4989286;28;20692;-75
2022/01/27 06:24:21;;;;;;;27.53;15.90;;;4.50;99.90;;;;;;4985668;28;20216;-75
2022/01/27 06:26:48;;;;;;;33.47;17.97;;;4.50;99.90;;;;;;4986832;28;20220;-75
2022/01/27 06:29:17;;;;;;;30.63;18.73;;;4.50;99.90;;;;;;4997876;28;20211;-75
2022/01/27 06:31:47;;;;;;;34.57;20.00;;;4.50;99.90;;;;;;4990150;28;20201;-75
2022/01/27 06:34:15;;;;;;;31.67;18.30;;;4.50;99.90;;;;;;4984747;28;20196;-75
2022/01/27 06:36:42;;;;;;;36.73;19.53;;;4.50;99.90;;;;;;4990509;28;20227;-75
2022/01/27 06:39:16;;;;;;;36.97;20.00;;;4.50;99.90;;;;;;4989622;28;20234;-75
2022/01/27 06:41:44;;;;;;;31.47;17.53;;;4.50;99.90;;;;;;4987012;28;20199;-75
2022/01/27 06:44:12;;;;;;;32.53;19.07;;;4.60;99.90;;;;;;4990805;28;20221;-75
2022/01/27 06:46:40;;;;;;;40.23;20.37;;;4.60;99.90;;;;;;4990704;28;20204;-77
2022/01/27 06:49:10;;;;;;;30.37;16.67;;;4.60;99.90;;;;;;4986017;28;20244;-78
2022/01/27 06:51:37;;;;;;;35.53;19.03;;;4.80;99.90;;;;;;4988773;28;20804;-76
2022/01/27 06:54:05;;;;;;;35.63;19.60;;;4.80;99.90;;;;;;4992675;28;20650;-75
2022/01/27 06:56:38;;;;;;;32.97;17.60;;;4.60;99.90;;;;;;4988270;28;20208;-76
2022/01/27 06:59:06;;;;;;;33.50;18.60;;;4.60;99.90;;;;;;4991334;28;20231;-74
2022/01/27 07:01:35;;;;;;;33.33;19.20;;;4.60;99.90;;;;;;4996228;28;20199;-74
2022/01/27 07:04:14;;;;;;;31.13;17.43;;;4.60;99.90;;;;;;4982918;28;20219;-74
2022/01/27 07:06:52;;;;;;;32.73;17.73;;;4.70;99.90;;;;;;4984976;28;20216;-73
2022/01/27 07:09:19;;;;;;;28.33;17.37;;;4.70;99.90;;;;;;4994602;28;20228;-73
2022/01/27 07:11:47;;;;;;;33.80;19.30;;;4.70;99.90;;;;;;4996293;28;20237;-73
2022/01/27 07:14:14;;;;;;;33.27;18.40;;;4.80;99.90;;;;;;4995356;28;20197;-73
2022/01/27 07:16:42;;;;;;;29.83;17.17;;;4.80;99.90;;;;;;4997534;28;20200;-74
2022/01/27 07:19:10;;;;;;;34.13;19.63;;;4.80;99.90;;;;;;4991401;28;20219;-74
2022/01/27 07:21:39;;;;;;;31.93;18.37;;;4.90;99.90;;;;;;4992461;28;20222;-73
2022/01/27 07:24:12;;;;;;;32.10;18.33;;;4.90;99.90;;;;;;4991867;28;20578;-74
2022/01/27 07:26:42;;;;;;;31.10;18.47;;;4.90;99.90;;;;;;4994660;28;20209;-74
2022/01/27 07:29:09;;;;;;;26.20;15.27;;;4.90;99.90;;;;;;5001038;28;20220;-74
2022/01/27 07:31:58;;;;;;;31.80;19.40;;;4.90;99.90;;;;;;4999470;28;20212;-74
2022/01/27 07:34:25;;;;;;;32.93;20.30;;;4.90;99.90;;;;;;4986006;28;20187;-74
2022/01/27 07:36:58;;;;;;;33.83;20.27;;;4.90;99.90;;;;;;4992448;28;20223;-74
2022/01/27 07:39:25;;;;;;;34.20;19.67;;;4.90;99.90;;;;;;4985004;28;20223;-73
2022/01/27 07:41:53;;;;;;;35.30;20.33;;;5.00;99.90;;;;;;4980198;28;20215;-74
2022/01/27 07:44:24;;;;;;;31.73;17.80;;;5.00;99.90;;;;;;4992755;28;20209;-74
2022/01/27 07:46:52;;;;;;;35.93;19.17;;;5.00;99.90;;;;;;4988240;28;20208;-74
2022/01/27 07:49:31;;;;;;;35.53;18.93;;;5.10;99.90;;;;;;4993280;28;20239;-74
2022/01/27 07:51:59;;;;;;;34.87;18.43;;;5.10;99.90;;;;;;4985141;28;20197;-74
2022/01/27 07:54:43;;;;;;;36.67;19.47;;;5.10;99.90;;;;;;4991777;28;20203;-74
2022/01/27 07:57:12;;;;;;;35.53;19.07;;;5.10;99.90;;;;;;4992516;28;20217;-74
2022/01/27 07:59:39;;;;;;;37.07;21.80;;;5.10;99.90;;;;;;5002134;28;20694;-74
2022/01/27 08:02:07;;;;;;;42.37;22.47;;;5.00;99.90;;;;;;4988593;28;20205;-74
2022/01/27 08:04:35;;;;;;;36.60;20.53;;;5.00;99.90;;;;;;4982149;28;20220;-73
2022/01/27 08:07:04;;;;;;;41.20;20.83;;;5.00;99.90;;;;;;4989243;28;20207;-74
2022/01/27 08:09:32;;;;;;;40.97;22.13;;;5.00;99.90;;;;;;4989000;28;20220;-74
2022/01/27 08:11:59;;;;;;;40.50;24.37;;;4.90;99.90;;;;;;4984683;28;20205;-74
2022/01/27 08:14:30;;;;;;;39.87;22.10;;;4.90;99.90;;;;;;4987795;28;20207;-74
2022/01/27 08:16:57;;;;;;;39.30;21.17;;;4.90;99.90;;;;;;4987549;28;20694;-74
2022/01/27 08:19:24;;;;;;;40.03;23.20;;;4.90;99.90;;;;;;4990111;28;20227;-74
2022/01/27 08:21:51;;;;;;;47.80;25.67;;;4.90;99.90;;;;;;4991374;28;20564;-74
2022/01/27 08:24:20;;;;;;;42.03;24.10;;;4.80;99.90;;;;;;4990836;28;20229;-74
2022/01/27 08:26:49;;;;;;;50.37;25.03;;;4.80;99.90;;;;;;4996259;28;20209;-74
2022/01/27 08:29:21;;;;;;;51.63;26.10;;;4.80;99.90;;;;;;4991203;28;20725;-74
2022/01/27 08:31:57;;;;;;;49.53;27.00;;;4.80;99.90;;;;;;4987298;28;20211;-74
2022/01/27 08:34:31;;;;;;;48.13;25.40;;;4.80;99.90;;;;;;4986595;28;20185;-73
2022/01/27 08:37:00;;;;;;;48.93;26.97;;;4.80;99.90;;;;;;4991095;28;20208;-74
2022/01/27 08:39:29;;;;;;;50.10;26.53;;;4.80;99.90;;;;;;4995020;28;20224;-74
2022/01/27 08:41:57;;;;;;;54.07;27.50;;;4.80;99.90;;;;;;4986596;28;20213;-74
2022/01/27 08:44:24;;;;;;;56.13;30.30;;;4.80;99.90;;;;;;5007260;28;20219;-74
2022/01/27 08:46:53;;;;;;;54.67;27.10;;;4.80;99.90;;;;;;4984600;28;20220;-74
2022/01/27 08:49:25;;;;;;;49.20;29.13;;;4.80;99.90;;;;;;4991327;28;20233;-74
2022/01/27 08:51:52;;;;;;;50.67;29.23;;;4.80;99.90;;;;;;4991474;28;20196;-74
2022/01/27 08:54:20;;;;;;;47.57;26.17;;;4.80;99.90;;;;;;4991129;28;20212;-74
2022/01/27 08:56:49;;;;;;;55.57;30.63;;;4.90;99.90;;;;;;4991203;28;20211;-74
2022/01/27 08:59:17;;;;;;;54.70;30.30;;;4.90;99.90;;;;;;4986835;28;20694;-74
2022/01/27 09:01:47;;;;;;;55.03;29.40;;;4.90;99.90;;;;;;4989940;28;20200;-74
2022/01/27 09:04:14;;;;;;;51.73;28.70;;;4.90;99.90;;;;;;4990579;28;20213;-74
2022/01/27 09:06:42;;;;;;;54.57;30.87;;;5.00;99.90;;;;;;4990791;28;20200;-74
2022/01/27 09:09:09;;;;;;;56.10;29.87;;;5.00;99.90;;;;;;4987539;28;20225;-74
2022/01/27 09:11:36;;;;;;;53.10;30.70;;;5.00;99.90;;;;;;4986170;28;20201;-74
2022/01/27 09:14:16;;;;;;;56.63;29.47;;;5.00;99.90;;;;;;4985357;28;20193;-75
2022/01/27 09:17:03;;;;;;;57.30;30.27;;;5.00;99.90;;;;;;4987835;28;20205;-75
2022/01/27 09:19:31;;;;;;;56.77;30.93;;;5.00;99.90;;;;;;4992034;28;20235;-75
2022/01/27 09:21:59;;;;;;;47.63;27.10;;;5.10;99.90;;;;;;4993136;28;20686;-75
2022/01/27 09:24:38;;;;;;;49.03;28.97;;;5.10;99.90;;;;;;5007202;28;20226;-73
2022/01/27 09:27:06;;;;;;;49.13;28.80;;;5.10;99.90;;;;;;4989183;28;20581;-74
2022/01/27 09:29:35;;;;;;;51.70;31.50;;;5.10;99.90;;;;;;4991530;28;20252;-74
2022/01/27 09:32:03;;;;;;;52.37;31.47;;;5.10;99.90;;;;;;4993300;28;20195;-74
2022/01/27 09:34:47;;;;;;;54.23;31.03;;;5.10;99.90;;;;;;4990878;28;20662;-75
2022/01/27 09:37:15;;;;;;;50.13;31.47;;;5.20;99.90;;;;;;4988012;28;20211;-75
2022/01/27 09:39:43;;;;;;;55.83;32.80;;;5.20;99.90;;;;;;4989164;28;20224;-75
2022/01/27 09:42:11;;;;;;;51.47;29.60;;;5.20;99.90;;;;;;4990215;28;20603;-74
2022/01/27 09:44:42;;;;;;;52.13;32.60;;;5.20;99.90;;;;;;4982822;28;20236;-74
2022/01/27 09:47:14;;;;;;;58.73;31.57;;;5.20;99.90;;;;;;4979654;28;20203;-74
2022/01/27 09:50:03;;;;;;;49.00;28.07;;;5.20;99.90;;;;;;4979518;28;20220;-74
2022/01/27 09:52:34;;;;;;;50.83;28.33;;;5.20;99.90;;;;;;4998009;28;20220;-74
2022/01/27 09:55:06;;;;;;;51.00;29.67;;;5.20;99.90;;;;;;4996487;28;20200;-74
2022/01/27 09:57:38;;;;;;;52.83;31.30;;;5.30;99.90;;;;;;4993869;28;20271;-74
2022/01/27 10:00:08;;;;;;;46.40;27.60;;;5.30;99.90;;;;;;4992431;28;20223;-76
2022/01/27 10:02:41;;;;;;;47.83;28.80;;;5.30;99.90;;;;;;4994883;28;20200;-77
2022/01/27 10:05:09;;;;;;;48.97;29.53;;;5.30;99.90;;;;;;5009614;28;20223;-75
2022/01/27 10:07:40;;;;;;;44.10;27.00;;;5.30;99.90;;;;;;5004549;28;20208;-75
2022/01/27 10:10:12;;;;;;;47.60;28.00;;;5.30;99.90;;;;;;4996215;28;20201;-76
2022/01/27 10:12:45;;;;;;;47.10;26.07;;;5.40;99.90;;;;;;4993843;28;20201;-77
2022/01/27 10:15:18;;;;;;;41.43;26.57;;;5.40;99.90;;;;;;4999926;28;20206;-76
2022/01/27 10:18:04;;;;;;;40.33;26.40;;;5.40;99.90;;;;;;4991926;28;20200;-76
2022/01/27 10:20:32;;;;;;;41.23;25.47;;;5.50;99.90;;;;;;4991921;28;20937;-75
2022/01/27 10:23:29;;;;;;;37.20;24.63;;;5.50;99.90;;;;;;5000784;28;20201;-77
2022/01/27 10:26:09;;;;;;;41.03;24.17;;;5.50;99.90;;;;;;5004295;28;20221;-76
2022/01/27 10:28:45;;;;;;;43.60;25.03;;;5.50;99.90;;;;;;4993325;28;20229;-76
2022/01/27 10:31:19;;;;;;;34.17;21.47;;;5.50;99.90;;;;;;4991344;28;20206;-75
2022/01/27 10:33:50;;;;;;;35.03;19.87;;;5.50;99.90;;;;;;5007794;28;20668;-77
2022/01/27 10:36:23;;;;;;;38.23;23.47;;;5.50;99.90;;;;;;5001101;28;20205;-77
2022/01/27 10:38:52;;;;;;;40.33;24.20;;;5.50;99.90;;;;;;4988890;28;20212;-78
2022/01/27 10:41:21;;;;;;;42.67;22.33;;;5.60;99.90;;;;;;4989751;28;20298;-77
2022/01/27 10:43:48;;;;;;;35.37;22.03;;;5.50;99.90;;;;;;4987057;28;20206;-76
2022/01/27 10:46:23;;;;;;;33.40;22.20;;;5.60;99.90;;;;;;4990238;28;20238;-78
2022/01/27 10:48:57;;;;;;;33.80;23.43;;;5.50;99.90;;;;;;4986544;28;20217;-77
2022/01/27 10:51:28;;;;;;;33.00;21.87;;;5.60;99.90;;;;;;4989560;28;20208;-78
2022/01/27 10:54:01;;;;;;;36.93;23.00;;;5.60;99.90;;;;;;4988530;28;20206;-77
2022/01/27 10:56:32;;;;;;;38.70;24.23;;;5.70;99.90;;;;;;4992908;28;20197;-76
2022/01/27 10:59:02;;;;;;;37.23;23.90;;;5.70;99.90;;;;;;4988704;28;20249;-76
2022/01/27 11:01:41;;;;;;;34.00;20.63;;;5.70;99.90;;;;;;4990765;28;20215;-76
2022/01/27 11:04:14;;;;;;;38.03;23.00;;;5.70;99.90;;;;;;5007021;28;20255;-76
2022/01/27 11:06:54;;;;;;;31.37;19.47;;;5.70;99.90;;;;;;5004657;28;20251;-78
2022/01/27 11:09:22;;;;;;;32.40;20.83;;;5.70;99.90;;;;;;4993576;28;20217;-79
2022/01/27 11:11:56;;;;;;;33.83;21.70;;;5.70;99.90;;;;;;5009317;28;20197;-78
2022/01/27 11:14:25;;;;;;;32.27;22.80;;;5.90;99.90;;;;;;4974605;28;20239;-78
2022/01/27 11:16:58;;;;;;;34.43;22.03;;;5.80;99.90;;;;;;5004992;28;20208;-76
2022/01/27 11:19:53;;;;;;;36.63;21.67;;;5.80;99.90;;;;;;5001226;28;20569;-77
2022/01/27 11:22:42;;;;;;;32.33;21.23;;;5.80;99.90;;;;;;5008678;28;20577;-77
2022/01/27 11:28:06;;;;;;;30.27;21.67;;;5.80;99.90;;;;;;5010343;28;20219;-76
2022/01/27 11:30:41;;;;;;;34.77;22.10;;;5.80;99.90;;;;;;5004657;28;20216;-76
2022/01/27 11:33:13;;;;;;;36.33;22.17;;;5.80;99.90;;;;;;5012631;28;20534;-76
2022/01/27 11:35:41;;;;;;;31.23;20.10;;;5.90;99.90;;;;;;5027847;28;20230;-76
2022/01/27 11:38:12;;;;;;;29.97;19.03;;;5.80;99.90;;;;;;5010875;28;20212;-76
2022/01/27 11:40:42;;;;;;;27.83;18.90;;;5.90;99.90;;;;;;5001996;28;20207;-76
2022/01/27 11:43:12;;;;;;;25.97;17.27;;;5.90;99.90;;;;;;5011920;28;20204;-76
2022/01/27 11:45:42;;;;;;;31.00;22.13;;;5.90;99.90;;;;;;5012478;28;20217;-76
2022/01/27 11:48:13;;;;;;;30.83;20.57;;;5.90;99.90;;;;;;5019906;28;20227;-77
2022/01/27 11:50:52;;;;;;;30.23;20.03;;;5.90;99.90;;;;;;5016713;28;20207;-77
2022/01/27 11:53:35;;;;;;;32.90;20.20;;;6.00;99.90;;;;;;5010205;28;20196;-77
2022/01/27 11:56:04;;;;;;;31.87;20.70;;;6.00;99.90;;;;;;5010875;28;20193;-77
2022/01/27 11:58:43;;;;;;;26.53;20.10;;;6.00;99.90;;;;;;5007491;28;20223;-77
2022/01/27 12:01:21;;;;;;;31.43;19.20;;;5.90;99.90;;;;;;5020994;28;20210;-76
2022/01/27 12:04:15;;;;;;;30.07;20.97;;;6.00;99.90;;;;;;5006009;28;20201;-76
2022/01/27 12:07:02;;;;;;;29.53;21.43;;;6.00;99.90;;;;;;5011006;28;20221;-76
2022/01/27 12:09:34;;;;;;;32.30;20.83;;;6.10;99.90;;;;;;5003849;28;20235;-76
2022/01/27 12:12:12;;;;;;;32.83;21.57;;;6.00;99.90;;;;;;5010278;28;20695;-75
2022/01/27 12:15:05;;;;;;;31.10;21.33;;;6.10;99.90;;;;;;5010893;28;20209;-75
2022/01/27 12:17:34;;;;;;;28.50;19.43;;;6.10;99.90;;;;;;5008348;28;20195;-75
2022/01/27 12:20:08;;;;;;;31.33;20.07;;;6.20;99.90;;;;;;4997526;28;20249;-75
2022/01/27 12:23:02;;;;;;;28.47;18.90;;;6.10;99.90;;;;;;5012623;28;20213;-74
2022/01/27 12:25:50;;;;;;;27.57;17.90;;;6.10;99.90;;;;;;5008925;28;20200;-74
2022/01/27 12:28:18;;;;;;;33.23;21.60;;;6.20;99.90;;;;;;5013273;28;20222;-75
2022/01/27 12:30:59;;;;;;;30.80;21.07;;;6.20;99.90;;;;;;5001108;28;20202;-75
2022/01/27 12:33:55;;;;;;;34.63;21.50;;;6.20;99.90;;;;;;5008460;28;20201;-75
2022/01/27 12:36:24;;;;;;;28.40;19.60;;;6.20;99.90;;;;;;5009169;28;20212;-75
2022/01/27 12:38:51;;;;;;;28.17;19.57;;;6.20;99.90;;;;;;4999170;28;20874;-75
2022/01/27 12:41:18;;;;;;;30.50;23.50;;;6.20;99.90;;;;;;5008141;28;20210;-75
2022/01/27 12:43:48;;;;;;;32.27;22.00;;;6.30;99.90;;;;;;5015411;28;20203;-74
2022/01/27 12:46:15;;;;;;;30.77;21.13;;;6.30;99.90;;;;;;5021417;28;20222;-74
2022/01/27 12:48:48;;;;;;;31.10;21.53;;;6.30;99.90;;;;;;5001876;28;20234;-75
2022/01/27 12:51:17;;;;;;;32.17;23.63;;;6.30;99.90;;;;;;5000296;28;20212;-74
2022/01/27 12:53:59;;;;;;;35.17;22.50;;;6.40;99.90;;;;;;5007441;28;20661;-74
2022/01/27 12:56:27;;;;;;;32.70;23.10;;;6.40;99.90;;;;;;5004134;28;20198;-74
2022/01/27 12:58:54;;;;;;;31.40;20.37;;;6.40;99.90;;;;;;5009999;28;20243;-74
2022/01/27 13:01:22;;;;;;;33.20;22.50;;;6.40;99.90;;;;;;4994296;28;20554;-75
2022/01/27 13:04:00;;;;;;;32.03;22.77;;;6.40;99.90;;;;;;4999077;28;20193;-74
2022/01/27 13:06:30;;;;;;;34.87;23.87;;;6.40;99.90;;;;;;5022624;28;20210;-74
2022/01/27 13:09:12;;;;;;;34.70;23.97;;;6.40;99.90;;;;;;5008247;28;20228;-75
2022/01/27 13:11:40;;;;;;;34.37;24.70;;;6.50;99.90;;;;;;5006861;28;20205;-75
2022/01/27 13:14:09;;;;;;;36.47;24.33;;;6.50;99.90;;;;;;5005727;28;20203;-74
2022/01/27 13:16:41;;;;;;;34.90;25.43;;;6.50;99.90;;;;;;5001027;28;20212;-74
2022/01/27 13:19:21;;;;;;;33.30;24.17;;;6.50;99.90;;;;;;5005720;28;20225;-75
2022/01/27 13:21:53;;;;;;;40.57;27.00;;;6.50;99.90;;;;;;4995378;28;20679;-75